createdAt,value
2023-01-17T00:29:38.924Z,22.70
2023-01-17T00:32:07.492Z,28.25
2023-01-17T00:34:35.657Z,28.38
2023-01-17T00:37:04.313Z,25.50
2023-01-17T00:39:32.414Z,27.38
2023-01-17T00:42:00.914Z,26.55
2023-01-17T00:44:57.383Z,25.33
2023-01-17T00:47:54.128Z,27.35
2023-01-17T00:50:41.814Z,31.85
2023-01-17T00:53:33.184Z,24.92
2023-01-17T00:56:20.984Z,26.27
2023-01-17T00:59:08.574Z,25.70
2023-01-17T01:01:55.495Z,27.52
2023-01-17T01:04:42.648Z,30.23
2023-01-17T01:07:29.512Z,26.60
2023-01-17T01:10:16.558Z,25.98
2023-01-17T01:13:04.500Z,28.10
2023-01-17T01:15:51.812Z,27.92
2023-01-17T01:18:38.671Z,28.70
2023-01-17T01:21:25.726Z,30.92
2023-01-17T01:24:12.444Z,30.17
2023-01-17T01:26:59.534Z,34.05
2023-01-17T01:29:46.185Z,31.75
2023-01-17T01:32:33.336Z,29.27
2023-01-17T01:35:01.622Z,29.60
2023-01-17T01:37:31.796Z,28.35
2023-01-17T01:40:00.061Z,28.40
2023-01-17T01:42:28.653Z,26.42
2023-01-17T01:45:07.180Z,24.75
2023-01-17T01:47:38.309Z,28.88
2023-01-17T01:50:09.311Z,27.40
2023-01-17T01:52:43.323Z,28.63
2023-01-17T01:55:42.323Z,30.25
2023-01-17T01:58:15.308Z,29.85
2023-01-17T02:00:43.702Z,29.15
2023-01-17T02:03:16.506Z,28.67
2023-01-17T02:05:45.276Z,26.77
2023-01-17T02:08:17.327Z,29.40
2023-01-17T02:10:46.284Z,28.00
2023-01-17T02:13:19.207Z,24.83
2023-01-17T02:16:18.522Z,26.60
2023-01-17T02:18:53.238Z,32.03
2023-01-17T02:21:23.277Z,27.60
2023-01-17T02:24:09.932Z,26.88
2023-01-17T02:26:58.483Z,27.42
2023-01-17T02:29:42.371Z,28.08
2023-01-17T02:32:25.861Z,29.10
2023-01-17T02:35:05.043Z,27.52
2023-01-17T02:38:03.848Z,27.20
2023-01-17T02:40:39.663Z,26.27
2023-01-17T02:43:14.822Z,29.52
2023-01-17T02:45:44.015Z,27.13
2023-01-17T02:48:15.267Z,30.83
2023-01-17T02:51:16.904Z,25.63
2023-01-17T02:53:51.607Z,28.80
2023-01-17T02:56:49.951Z,26.73
2023-01-17T02:59:38.569Z,25.33
2023-01-17T03:02:21.308Z,28.40
2023-01-17T03:05:05.398Z,26.77
2023-01-17T03:07:35.204Z,25.70
2023-01-17T03:10:05.684Z,27.42
2023-01-17T03:12:37.484Z,26.15
2023-01-17T03:15:11.977Z,28.42
2023-01-17T03:17:52.057Z,26.75
2023-01-17T03:20:22.565Z,27.23
2023-01-17T03:22:51.607Z,30.17
2023-01-17T03:25:19.819Z,26.58
2023-01-17T03:27:48.432Z,27.90
2023-01-17T03:30:17.811Z,27.17
2023-01-17T03:32:46.422Z,26.70
2023-01-17T03:35:15.236Z,26.13
2023-01-17T03:37:53.226Z,29.30
2023-01-17T03:40:21.448Z,29.42
2023-01-17T03:43:14.982Z,28.08
2023-01-17T03:45:43.284Z,25.25
2023-01-17T03:48:12.254Z,28.63
2023-01-17T03:50:43.317Z,29.23
2023-01-17T03:53:12.004Z,31.45
2023-01-17T03:55:40.188Z,26.65
2023-01-17T03:58:08.778Z,29.15
2023-01-17T04:00:37.120Z,35.28
2023-01-17T04:03:05.814Z,33.70
2023-01-17T04:05:34.395Z,35.65
2023-01-17T04:08:03.558Z,34.20
2023-01-17T04:10:31.868Z,33.55
2023-01-17T04:13:00.474Z,32.63
2023-01-17T04:15:28.917Z,34.30
2023-01-17T04:17:58.009Z,32.00
2023-01-17T04:20:35.986Z,31.85
2023-01-17T04:23:07.461Z,28.52
2023-01-17T04:25:35.835Z,30.60
2023-01-17T04:28:05.155Z,30.88
2023-01-17T04:30:34.139Z,33.33
2023-01-17T04:33:03.453Z,33.33
2023-01-17T04:35:36.113Z,31.48
2023-01-17T04:38:07.786Z,30.75
2023-01-17T04:41:00.990Z,32.75
2023-01-17T04:43:29.634Z,28.60
2023-01-17T04:45:58.670Z,32.97
2023-01-17T04:49:00.471Z,31.73
2023-01-17T04:51:39.781Z,31.90
2023-01-17T04:54:16.831Z,32.15
2023-01-17T04:57:42.418Z,32.70
2023-01-17T05:00:27.457Z,32.30
2023-01-17T05:03:11.726Z,33.40
2023-01-17T05:05:43.880Z,36.10
2023-01-17T05:08:19.981Z,36.55
2023-01-17T05:10:56.883Z,29.92
2023-01-17T05:13:28.139Z,32.88
2023-01-17T05:15:59.877Z,34.53
2023-01-17T05:18:28.322Z,33.13
2023-01-17T05:21:02.278Z,31.50
2023-01-17T05:23:32.396Z,39.42
2023-01-17T05:26:03.609Z,38.15
2023-01-17T05:28:41.037Z,36.72
2023-01-17T05:31:09.654Z,35.47
2023-01-17T05:33:37.962Z,38.22
2023-01-17T05:36:27.299Z,32.13
2023-01-17T05:38:55.665Z,35.17
2023-01-17T05:41:24.233Z,34.72
2023-01-17T05:43:52.428Z,37.03
2023-01-17T05:46:21.159Z,37.60
2023-01-17T05:48:49.447Z,38.70
2023-01-17T05:51:17.989Z,34.25
2023-01-17T05:53:46.224Z,37.58
2023-01-17T05:56:14.745Z,34.67
2023-01-17T05:58:43.072Z,29.92
2023-01-17T06:01:11.811Z,27.98
2023-01-17T06:03:40.071Z,31.50
2023-01-17T06:06:08.754Z,27.38
2023-01-17T06:08:37.293Z,28.95
2023-01-17T06:11:09.013Z,33.33
2023-01-17T06:13:37.397Z,33.30
2023-01-17T06:16:06.249Z,29.17
2023-01-17T06:18:34.644Z,32.58
2023-01-17T06:21:03.224Z,33.42
2023-01-17T06:23:31.565Z,32.35
2023-01-17T06:26:03.849Z,35.80
2023-01-17T06:31:05.976Z,37.17
2023-01-17T06:33:34.606Z,35.65
2023-01-17T06:36:03.630Z,40.05
2023-01-17T06:38:32.174Z,36.00
2023-01-17T06:41:04.806Z,35.30
2023-01-17T06:43:35.002Z,37.95
2023-01-17T06:46:03.591Z,35.78
2023-01-17T06:48:31.863Z,32.85
2023-01-17T06:51:00.436Z,33.10
2023-01-17T06:53:28.744Z,33.17
2023-01-17T06:55:57.861Z,33.63
2023-01-17T06:58:26.117Z,34.17
2023-01-17T07:00:54.871Z,35.22
2023-01-17T07:03:25.990Z,34.15
2023-01-17T07:05:54.753Z,33.47
2023-01-17T07:08:23.003Z,35.85
2023-01-17T07:10:51.773Z,35.17
2023-01-17T07:13:20.068Z,32.97
2023-01-17T07:15:48.656Z,39.30
2023-01-17T07:18:20.765Z,36.20
2023-01-17T07:20:56.251Z,34.78
2023-01-17T07:23:24.779Z,35.38
2023-01-17T07:25:54.910Z,37.30
2023-01-17T07:28:24.074Z,36.15
2023-01-17T07:30:53.149Z,35.17
2023-01-17T07:33:21.796Z,39.72
2023-01-17T07:35:50.445Z,41.28
2023-01-17T07:38:20.147Z,41.42
2023-01-17T07:40:48.748Z,37.30
2023-01-17T07:43:17.423Z,39.60
2023-01-17T07:45:51.054Z,36.38
2023-01-17T07:48:21.539Z,38.92
2023-01-17T07:50:58.209Z,33.83
2023-01-17T07:53:29.362Z,35.05
2023-01-17T07:56:04.826Z,35.42
2023-01-17T07:58:34.389Z,37.63
2023-01-17T08:01:05.221Z,35.20
2023-01-17T08:03:36.661Z,31.88
2023-01-17T08:06:06.791Z,36.97
2023-01-17T08:08:35.064Z,40.00
2023-01-17T08:11:03.662Z,35.05
2023-01-17T08:13:31.841Z,35.55
2023-01-17T08:16:02.569Z,36.08
2023-01-17T08:18:31.025Z,34.85
2023-01-17T08:20:59.573Z,33.60
2023-01-17T08:23:28.249Z,32.85
2023-01-17T08:26:01.338Z,28.42
2023-01-17T08:28:29.679Z,31.77
2023-01-17T08:30:58.445Z,31.77
2023-01-17T08:33:27.361Z,33.47
2023-01-17T08:35:56.045Z,29.02
2023-01-17T08:38:24.833Z,28.88
2023-01-17T08:40:53.502Z,30.75
2023-01-17T08:43:21.793Z,30.42
2023-01-17T08:45:50.570Z,26.67
2023-01-17T08:48:19.006Z,29.95
2023-01-17T08:50:47.485Z,26.73
2023-01-17T08:53:16.617Z,29.60
2023-01-17T08:55:45.438Z,26.42
2023-01-17T08:58:14.072Z,22.73
2023-01-17T09:00:42.648Z,23.75
2023-01-17T09:03:14.644Z,26.52
2023-01-17T09:05:43.342Z,23.95
2023-01-17T09:08:11.622Z,24.40
2023-01-17T09:10:40.234Z,20.88
2023-01-17T09:13:08.844Z,26.13
2023-01-17T09:15:37.426Z,22.63
2023-01-17T09:18:05.752Z,22.45
2023-01-17T09:20:34.311Z,19.58
2023-01-17T09:23:04.433Z,20.92
2023-01-17T09:25:33.094Z,19.33
2023-01-17T09:28:01.302Z,20.55
2023-01-17T09:30:29.878Z,18.27
2023-01-17T09:32:58.166Z,22.58
2023-01-17T09:35:26.741Z,23.88
2023-01-17T09:37:57.205Z,18.17
2023-01-17T09:40:26.087Z,19.65
2023-01-17T09:43:02.608Z,19.65
2023-01-17T09:45:32.885Z,21.30
2023-01-17T09:48:06.804Z,18.52
2023-01-17T09:51:00.819Z,17.35
2023-01-17T09:53:34.215Z,19.23
2023-01-17T09:56:21.355Z,19.50
2023-01-17T09:59:18.568Z,19.30
2023-01-17T10:02:02.087Z,18.80
2023-01-17T10:04:38.633Z,17.13
2023-01-17T10:07:13.250Z,14.90
2023-01-17T10:10:05.693Z,14.27
2023-01-17T10:12:44.714Z,14.23
2023-01-17T10:15:37.777Z,15.25
2023-01-17T10:18:29.939Z,18.73
2023-01-17T10:21:27.152Z,14.65
2023-01-17T10:24:24.860Z,16.27
2023-01-17T10:26:56.431Z,13.68
2023-01-17T10:32:00.414Z,15.95
2023-01-17T10:34:50.263Z,15.15
2023-01-17T10:37:23.268Z,13.48
2023-01-17T10:39:56.332Z,12.48
2023-01-17T10:42:50.994Z,12.35
2023-01-17T10:45:28.998Z,13.35
2023-01-17T10:48:23.157Z,10.45
2023-01-17T10:51:08.028Z,11.48
2023-01-17T10:53:54.874Z,13.07
2023-01-17T10:56:27.838Z,13.48
2023-01-17T10:59:19.202Z,11.23
2023-01-17T11:01:50.288Z,13.40
2023-01-17T11:04:22.828Z,10.77
2023-01-17T11:07:13.443Z,11.40
2023-01-17T11:09:47.517Z,11.68
2023-01-17T11:12:18.602Z,13.05
2023-01-17T11:15:22.924Z,12.40
2023-01-17T11:18:05.924Z,12.18
2023-01-17T11:20:38.743Z,11.38
2023-01-17T11:23:15.602Z,12.50
2023-01-17T11:26:04.829Z,12.55
2023-01-17T11:28:38.578Z,9.00
2023-01-17T11:31:24.962Z,10.55
2023-01-17T11:34:24.213Z,10.55
2023-01-17T11:37:19.528Z,11.68
2023-01-17T11:39:48.342Z,11.23
2023-01-17T11:42:38.358Z,8.25
2023-01-17T11:45:34.748Z,9.75
2023-01-17T11:48:09.191Z,16.20
2023-01-17T11:50:58.935Z,8.98
2023-01-17T11:53:49.299Z,9.63
2023-01-17T11:56:29.373Z,8.15
2023-01-17T11:59:30.354Z,6.43
2023-01-17T12:02:33.684Z,8.98
2023-01-17T12:05:05.091Z,8.35
2023-01-17T12:07:52.225Z,7.28
2023-01-17T12:10:38.434Z,8.35
2023-01-17T12:13:40.718Z,8.13
2023-01-17T12:21:20.335Z,7.45
2023-01-17T12:23:49.012Z,7.13
2023-01-17T12:26:40.378Z,6.63
2023-01-17T12:29:32.014Z,5.55
2023-01-17T12:32:09.505Z,5.95
2023-01-17T12:34:47.199Z,7.25
2023-01-17T12:37:21.887Z,5.97
2023-01-17T12:39:58.703Z,5.50
2023-01-17T12:42:36.262Z,7.63
2023-01-17T12:45:09.935Z,4.88
2023-01-17T12:47:44.426Z,5.38
2023-01-17T12:50:32.615Z,6.65
2023-01-17T12:54:00.360Z,6.20
2023-01-17T12:56:41.252Z,5.95
2023-01-17T12:59:41.251Z,6.88
2023-01-17T13:02:39.496Z,5.90
2023-01-17T13:05:23.926Z,6.88
2023-01-17T13:08:18.138Z,5.32
2023-01-17T13:11:08.269Z,5.43
2023-01-17T13:13:37.067Z,4.00
2023-01-17T13:16:15.284Z,5.93
2023-01-17T13:18:49.318Z,6.32
2023-01-17T13:21:36.377Z,6.38
2023-01-17T13:24:19.305Z,6.32
2023-01-17T13:26:56.654Z,5.07
2023-01-17T13:29:40.282Z,6.05
2023-01-17T13:32:27.746Z,6.40
2023-01-17T13:35:21.073Z,6.60
2023-01-17T13:38:21.786Z,8.85
2023-01-17T13:41:17.758Z,5.97
2023-01-17T13:44:06.190Z,6.30
2023-01-17T13:47:01.650Z,7.50
2023-01-17T13:49:29.993Z,5.50
2023-01-17T13:56:31.788Z,5.10
2023-01-17T13:59:51.663Z,6.28
2023-01-17T14:02:46.639Z,6.32
2023-01-17T14:05:24.068Z,7.93
2023-01-17T14:07:52.622Z,5.50
2023-01-17T14:10:37.035Z,4.90
2023-01-17T14:13:43.738Z,5.60
2023-01-17T14:16:37.758Z,5.90
2023-01-17T14:19:36.330Z,5.75
2023-01-17T14:22:29.301Z,8.40
2023-01-17T14:25:28.633Z,12.00
2023-01-17T14:28:01.487Z,10.77
2023-01-17T14:31:23.296Z,16.35
2023-01-17T14:33:52.065Z,11.25
2023-01-17T14:36:30.534Z,12.57
2023-01-17T14:38:58.940Z,13.07
2023-01-17T14:42:17.649Z,10.25
2023-01-17T14:44:48.605Z,10.13
2023-01-17T14:47:17.921Z,10.87
2023-01-17T14:49:46.255Z,9.55
2023-01-17T14:52:17.962Z,12.70
2023-01-17T14:54:52.231Z,13.68
2023-01-17T14:57:34.059Z,15.40
2023-01-17T15:00:18.574Z,9.63
2023-01-17T15:02:48.723Z,8.95
2023-01-17T15:05:25.764Z,9.80
2023-01-17T15:08:21.025Z,16.75
2023-01-17T15:11:17.940Z,24.95
2023-01-17T15:14:43.457Z,18.42
2023-01-17T15:17:24.983Z,25.60
2023-01-17T15:20:03.235Z,40.60
2023-01-17T15:22:31.865Z,15.73
2023-01-17T15:25:09.224Z,11.90
2023-01-17T15:28:30.483Z,9.32
2023-01-17T15:31:11.264Z,9.30
2023-01-17T15:33:45.705Z,9.45
2023-01-17T15:36:38.698Z,8.15
2023-01-17T15:39:39.096Z,9.00
2023-01-17T15:42:38.673Z,10.90
2023-01-17T15:45:39.176Z,6.78
2023-01-17T15:48:40.709Z,5.90
2023-01-17T15:51:45.549Z,6.57
2023-01-17T15:55:18.130Z,7.45
2023-01-17T15:58:23.432Z,10.85
2023-01-17T16:01:03.294Z,7.95
2023-01-17T16:03:37.075Z,7.15
2023-01-17T16:06:53.137Z,5.53
2023-01-17T16:09:26.058Z,6.18
2023-01-17T16:15:13.264Z,8.60
2023-01-17T16:17:46.777Z,10.18
2023-01-17T16:20:49.623Z,8.02
2023-01-17T16:26:50.627Z,12.13
2023-01-17T16:29:23.845Z,11.45
2023-01-17T16:32:01.935Z,11.23
2023-01-17T16:34:38.399Z,10.38
2023-01-17T16:37:43.333Z,8.27
2023-01-17T16:40:25.104Z,5.70
2023-01-17T16:42:59.685Z,8.37
2023-01-17T16:45:32.104Z,5.63
2023-01-17T16:48:02.502Z,6.03
2023-01-17T16:50:53.075Z,6.88
2023-01-17T16:53:35.567Z,8.18
2023-01-17T17:17:02.427Z,8.68
2023-01-17T17:24:06.023Z,12.63
2023-01-17T17:34:36.842Z,7.88
2023-01-17T17:37:30.196Z,8.80
2023-01-17T17:39:58.992Z,8.05
2023-01-17T17:42:30.414Z,13.75
2023-01-17T17:44:59.762Z,9.77
2023-01-17T17:47:30.553Z,13.20
2023-01-17T17:50:00.541Z,12.83
2023-01-17T17:52:54.006Z,12.98
2023-01-17T17:55:22.638Z,11.77
2023-01-17T17:57:53.623Z,13.88
2023-01-17T18:00:23.249Z,10.20
2023-01-17T18:02:51.571Z,9.27
2023-01-17T18:05:20.315Z,11.43
2023-01-17T18:07:50.947Z,11.00
2023-01-17T18:10:19.801Z,12.75
2023-01-17T18:13:12.966Z,20.48
2023-01-17T18:15:42.882Z,26.58
2023-01-17T18:18:20.169Z,36.28
2023-01-17T18:20:48.903Z,38.45
2023-01-17T18:23:35.263Z,38.90
2023-01-17T18:26:21.116Z,48.30
2023-01-17T18:28:52.031Z,57.15
2023-01-17T18:31:24.542Z,36.78
2023-01-17T18:33:58.251Z,44.42
2023-01-17T18:36:31.490Z,42.35
2023-01-17T18:39:11.112Z,53.03
2023-01-17T18:41:43.137Z,52.58
2023-01-17T18:44:22.166Z,38.70
2023-01-17T18:47:02.212Z,22.60
2023-01-17T18:49:35.284Z,19.00
2023-01-17T18:52:11.006Z,42.88
2023-01-17T18:54:50.320Z,45.70
2023-01-17T18:57:28.694Z,59.05
2023-01-17T19:00:02.240Z,55.75
2023-01-17T19:02:40.248Z,24.00
2023-01-17T19:05:18.102Z,14.50
2023-01-17T19:08:17.939Z,11.73
2023-01-17T19:10:53.902Z,10.02
2023-01-17T19:13:52.549Z,11.77
2023-01-17T19:16:32.260Z,12.65
2023-01-17T19:19:33.387Z,14.75
2023-01-17T19:22:16.292Z,14.35
2023-01-17T19:24:44.770Z,35.95
2023-01-17T19:27:14.415Z,40.45
2023-01-17T19:29:43.030Z,26.65
2023-01-17T19:32:12.496Z,21.58
2023-01-17T19:34:41.349Z,26.05
2023-01-17T19:37:20.067Z,24.95
2023-01-17T19:39:54.118Z,42.58
2023-01-17T19:42:35.047Z,30.35
2023-01-17T19:45:29.161Z,33.90
2023-01-17T19:48:06.301Z,46.03
2023-01-17T19:50:39.860Z,45.33
2023-01-17T19:53:11.164Z,46.83
2023-01-17T19:55:42.499Z,36.08
2023-01-17T19:58:13.085Z,26.42
2023-01-17T20:03:49.019Z,31.13
2023-01-17T20:06:29.027Z,42.70
2023-01-17T20:08:58.877Z,36.83
2023-01-17T20:11:30.684Z,29.85
2023-01-17T20:14:00.594Z,18.55
2023-01-17T20:16:33.235Z,22.00
2023-01-17T20:19:06.532Z,37.40
2023-01-17T20:21:37.996Z,51.40
2023-01-17T20:24:11.198Z,75.35
2023-01-17T20:26:41.054Z,72.65
2023-01-17T20:29:15.917Z,72.22
2023-01-17T20:31:45.718Z,42.42
2023-01-17T20:36:59.668Z,47.05
2023-01-17T20:39:29.602Z,41.08
2023-01-17T20:42:10.559Z,44.53
2023-01-17T20:44:42.737Z,54.15
2023-01-17T20:48:07.553Z,67.28
2023-01-17T20:50:37.014Z,52.60
2023-01-17T20:53:06.083Z,37.15
2023-01-17T20:55:43.805Z,47.13
2023-01-17T21:09:25.566Z,41.65
2023-01-17T21:12:01.095Z,46.72
2023-01-17T21:14:30.674Z,57.00
2023-01-17T21:17:02.660Z,70.82
2023-01-17T21:19:57.400Z,77.60
2023-01-17T21:22:29.491Z,81.45
2023-01-17T21:25:00.732Z,79.82
2023-01-17T21:27:29.475Z,75.30
2023-01-17T21:30:00.786Z,85.00
2023-01-17T21:32:33.115Z,134.30
2023-01-17T21:35:08.332Z,132.98
2023-01-17T21:37:37.307Z,135.98
2023-01-17T21:40:06.183Z,176.88
2023-01-17T21:42:35.070Z,136.30
2023-01-17T21:45:03.810Z,152.75
2023-01-17T21:47:32.760Z,221.82
2023-01-17T21:50:01.205Z,231.57
2023-01-17T21:52:31.930Z,222.73
2023-01-17T21:55:26.626Z,190.63
2023-01-17T21:58:19.234Z,219.93
2023-01-17T22:01:28.553Z,225.65
2023-01-17T22:04:03.384Z,208.73
2023-01-17T22:06:42.455Z,212.23
2023-01-17T22:09:15.635Z,219.93
2023-01-17T22:11:44.187Z,206.25
2023-01-17T22:14:16.672Z,183.27
2023-01-17T22:16:46.063Z,165.63
2023-01-17T22:19:16.871Z,181.02
2023-01-17T22:21:52.186Z,111.72
2023-01-17T22:24:22.383Z,95.80
2023-01-17T22:26:50.768Z,88.68
2023-01-17T22:29:27.039Z,83.57
2023-01-17T22:32:05.442Z,91.35
2023-01-17T22:34:34.557Z,84.53
2023-01-17T22:37:04.802Z,94.53
2023-01-17T22:42:12.429Z,110.88
2023-01-17T22:44:41.115Z,114.85
2023-01-17T22:47:24.293Z,238.90
2023-01-17T22:49:53.160Z,125.47
2023-01-17T22:52:25.857Z,101.15
2023-01-17T22:54:54.567Z,95.18
2023-01-17T22:57:23.411Z,141.50
2023-01-17T22:59:51.982Z,163.55
2023-01-17T23:02:23.223Z,141.05
2023-01-17T23:04:52.227Z,135.63
2023-01-17T23:07:20.465Z,127.15
2023-01-17T23:09:52.745Z,135.88
2023-01-17T23:12:29.746Z,142.23
2023-01-17T23:15:22.358Z,148.13
2023-01-17T23:18:09.275Z,159.52
2023-01-17T23:20:37.932Z,170.88
2023-01-17T23:23:06.203Z,182.52
2023-01-17T23:25:36.461Z,168.32
2023-01-17T23:28:27.160Z,160.88
2023-01-17T23:31:03.232Z,140.00
2023-01-17T23:33:31.580Z,141.48
2023-01-17T23:36:00.257Z,142.60
2023-01-17T23:38:34.049Z,151.70
2023-01-17T23:41:26.792Z,169.43
2023-01-17T23:43:57.924Z,137.63
2023-01-17T23:46:27.258Z,152.25
2023-01-17T23:48:55.633Z,188.50
2023-01-17T23:51:24.153Z,188.50
2023-01-17T23:53:57.472Z,189.80
2023-01-17T23:56:26.198Z,201.98
2023-01-17T23:58:54.406Z,209.88
